Time;durP1;ratioP1;P1;durP2;ratioP2;P2;SDS_P1;SDS_P2;PMS_P1;PMS_P2;Temp;Humidity;BMP_temperature;BMP_pressure;BME280_temperature;BME280_humidity;BME280_pressure;Samples;Min_cycle;Max_cycle;Signal;HPM_P1;HPM_P2
2022/02/11 00:04:56;;;;;;;14.25;3.20;;;;;;;5.72;87.97;102267.16;5101411;28;20062;-72
2022/02/11 00:07:21;;;;;;;18.77;2.05;;;;;;;5.74;88.60;102269.88;5094879;28;20024;-72
2022/02/11 00:09:47;;;;;;;10.90;2.50;;;;;;;5.72;89.35;102264.56;5100064;28;20032;-72
2022/02/11 00:12:12;;;;;;;13.88;2.28;;;;;;;5.69;89.89;102266.06;5105118;28;20027;-72
2022/02/11 00:14:48;;;;;;;12.93;2.17;;;;;;;5.65;90.80;102254.53;5100227;28;20028;-72
2022/02/11 00:17:15;;;;;;;13.00;2.40;;;;;;;5.64;90.93;102267.50;5098765;28;20019;-72
2022/02/11 00:19:40;;;;;;;20.90;2.50;;;;;;;5.61;90.56;102267.31;5080884;28;20039;-72
2022/02/11 00:22:06;;;;;;;15.18;2.20;;;;;;;5.63;90.71;102264.00;5095650;28;20024;-72
2022/02/11 00:24:31;;;;;;;12.23;2.35;;;;;;;5.63;91.13;102266.63;5077675;28;20471;-72
2022/02/11 00:30:23;;;;;;;17.77;2.33;;;;;;;5.60;91.16;102269.03;5106148;28;20046;-72
2022/02/11 00:32:43;;;;;;;11.88;2.13;;;;;;;5.60;92.23;102261.19;5102857;28;20111;-73
2022/02/11 00:35:23;;;;;;;8.20;1.73;;;;;;;5.62;91.92;102261.31;5080766;28;20031;-73
2022/02/11 00:37:48;;;;;;;10.45;2.05;;;;;;;5.58;93.01;102262.81;5078357;28;20426;-72
2022/02/11 00:40:43;;;;;;;9.10;2.95;;;;;;;5.54;93.25;102266.94;5096845;28;20081;-72
2022/02/11 00:43:56;;;;;;;13.52;2.40;;;;;;;5.51;93.46;102253.72;5103359;28;20104;-73
2022/02/11 01:04:41;;;;;;;16.10;2.53;;;;;;;5.54;95.15;102235.63;5101638;28;20040;-71
2022/02/11 01:07:08;;;;;;;13.60;2.53;;;;;;;5.58;95.14;102234.97;5096711;28;20032;-72
2022/02/11 01:09:34;;;;;;;18.85;2.38;;;;;;;5.57;95.26;102242.72;5095542;28;20388;-73
2022/02/11 01:12:03;;;;;;;18.35;2.47;;;;;;;5.62;95.43;102248.25;5099983;28;20024;-72
2022/02/11 01:14:38;;;;;;;11.70;2.75;;;;;;;5.63;96.92;102260.47;5095118;28;20028;-73
2022/02/11 01:17:23;;;;;;;20.40;3.15;;;;;;;5.46;100.00;102268.19;5083026;28;20085;-72
2022/02/11 01:30:57;;;;;;;18.67;2.75;;;;;;;4.75;100.00;102275.97;5110899;27;20034;-74
2022/02/11 01:35:37;;;;;;;20.75;2.95;;;;;;;4.70;100.00;102271.38;5099331;28;20119;-74
2022/02/11 01:46:16;;;;;;;16.85;3.28;;;;;;;4.79;100.00;102298.81;5097791;28;20056;-73
2022/02/11 01:49:01;;;;;;;24.50;3.30;;;;;;;4.82;100.00;102296.44;5105109;28;20126;-74
2022/02/11 01:51:39;;;;;;;24.35;2.53;;;;;;;4.85;100.00;102299.22;5087611;28;20131;-74
2022/02/11 01:54:33;;;;;;;13.95;1.90;;;;;;;4.94;100.00;102296.28;5084938;28;20483;-75
2022/02/11 01:59:50;;;;;;;14.98;2.40;;;;;;;4.99;100.00;102289.66;5096991;28;20044;-75
2022/02/11 02:13:53;;;;;;;19.17;2.38;;;;;;;5.20;100.00;102290.09;5097524;28;20135;-74
2022/02/11 02:32:50;;;;;;;12.03;2.43;;;;;;;5.40;100.00;102307.88;5098346;28;20003;-74
2022/02/11 02:59:04;;;;;;;23.30;3.17;;;;;;;5.53;99.63;102311.25;5094994;28;20125;-72
2022/02/11 04:53:02;;;;;;;19.55;3.03;;;;;;;5.27;99.26;102474.97;5072822;28;20036;-74
2022/02/11 04:53:11;;;;;;;27.77;3.63;;;;;;;5.10;97.00;102510.44;5112010;28;20081;-73
2022/02/11 04:55:28;;;;;;;29.25;3.30;;;;;;;5.12;96.49;102520.97;5099863;28;20379;-73
2022/02/11 05:00:39;;;;;;;22.77;3.97;;;;;;;5.06;96.44;102516.25;5095424;28;20131;-73
2022/02/11 05:03:05;;;;;;;25.85;3.10;;;;;;;5.05;97.10;102525.75;5107747;28;20027;-73
2022/02/11 05:05:48;;;;;;;22.40;2.90;;;;;;;5.06;96.95;102535.41;5102652;28;20032;-74
2022/02/11 05:08:15;;;;;;;20.52;2.80;;;;;;;5.04;97.19;102539.59;5103660;28;20151;-73
2022/02/11 05:10:40;;;;;;;29.00;4.03;;;;;;;4.96;97.38;102529.47;5081766;28;20028;-72
2022/02/11 05:13:06;;;;;;;13.52;2.60;;;;;;;4.94;96.63;102542.41;5095288;28;20429;-73
2022/02/11 05:15:31;;;;;;;12.82;2.40;;;;;;;4.90;96.07;102551.72;5095057;28;20043;-73
2022/02/11 05:17:57;;;;;;;18.70;3.55;;;;;;;4.90;96.11;102556.06;5099692;28;20031;-73
2022/02/11 05:20:22;;;;;;;21.88;3.10;;;;;;;4.92;95.70;102559.66;5103907;28;20077;-73
2022/02/11 05:22:47;;;;;;;20.95;3.03;;;;;;;4.95;95.37;102572.94;5100719;28;20388;-73
2022/02/11 05:25:13;;;;;;;17.25;2.92;;;;;;;4.93;96.40;102565.78;5102993;28;20023;-74
2022/02/11 05:27:38;;;;;;;17.40;3.42;;;;;;;4.93;94.24;102577.13;5107228;28;20065;-73
2022/02/11 05:30:04;;;;;;;18.92;3.10;;;;;;;4.89;94.69;102576.00;5107468;28;20035;-74
2022/02/11 05:32:29;;;;;;;15.35;1.92;;;;;;;4.87;95.37;102590.66;5078927;28;20537;-74
2022/02/11 05:34:55;;;;;;;22.92;2.65;;;;;;;4.90;93.29;102595.19;5104584;28;20464;-75
2022/02/11 05:37:20;;;;;;;8.15;1.85;;;;;;;4.91;92.96;102597.00;5101234;28;20051;-74
2022/02/11 05:39:45;;;;;;;9.27;1.67;;;;;;;4.93;92.26;102600.59;5099041;28;20027;-73
2022/02/11 05:42:11;;;;;;;18.35;2.17;;;;;;;4.97;91.14;102615.66;5103353;28;20497;-73
2022/02/11 05:44:36;;;;;;;9.57;2.00;;;;;;;5.02;92.26;102624.72;5093889;28;20030;-73
2022/02/11 05:47:01;;;;;;;15.35;3.33;;;;;;;5.02;93.13;102631.63;5096459;28;20467;-73
2022/02/11 05:49:27;;;;;;;26.90;2.83;;;;;;;5.00;95.38;102641.06;5095242;28;20024;-74
2022/02/11 05:51:52;;;;;;;10.85;2.17;;;;;;;4.97;96.61;102646.97;5100554;28;20081;-74
2022/02/11 05:54:17;;;;;;;10.63;1.83;;;;;;;4.95;97.55;102645.97;5104434;28;20048;-74
2022/02/11 05:56:43;;;;;;;15.63;2.10;;;;;;;4.94;97.06;102645.84;5079037;28;20030;-74
2022/02/11 05:59:08;;;;;;;18.55;2.40;;;;;;;4.90;96.79;102656.06;5079172;28;20032;-74
2022/02/11 06:01:33;;;;;;;17.15;2.67;;;;;;;4.90;97.36;102660.41;5098809;28;20076;-73
2022/02/11 06:03:59;;;;;;;18.10;2.88;;;;;;;4.88;97.82;102659.38;5096472;28;20016;-73
2022/02/11 06:06:24;;;;;;;13.70;2.35;;;;;;;4.80;97.87;102655.31;5082526;28;20030;-72
2022/02/11 06:08:50;;;;;;;15.60;2.83;;;;;;;4.71;98.18;102659.09;5102733;28;20031;-73
2022/02/11 06:11:15;;;;;;;15.98;2.63;;;;;;;4.65;97.68;102656.09;5075350;28;20028;-72
2022/02/11 06:13:40;;;;;;;23.42;3.22;;;;;;;4.63;97.42;102664.59;5095674;28;20490;-73
2022/02/11 06:16:06;;;;;;;25.05;3.22;;;;;;;4.56;96.45;102664.16;5096335;28;20069;-73
2022/02/11 06:18:31;;;;;;;13.10;3.83;;;;;;;4.56;95.42;102665.88;5101147;28;20093;-72
2022/02/11 06:20:56;;;;;;;22.95;3.53;;;;;;;4.55;96.21;102667.56;5089066;28;20110;-72
2022/02/11 06:23:22;;;;;;;17.15;3.35;;;;;;;4.54;95.48;102670.06;5104072;28;20031;-77
2022/02/11 06:25:48;;;;;;;19.77;2.97;;;;;;;4.51;96.04;102670.75;5076429;28;20051;-73
2022/02/11 06:28:15;;;;;;;25.48;3.53;;;;;;;4.49;95.80;102682.78;5102176;28;20023;-72
2022/02/11 06:30:40;;;;;;;19.83;3.85;;;;;;;4.54;95.48;102702.25;5080712;28;20034;-74
2022/02/11 06:33:06;;;;;;;21.20;3.10;;;;;;;4.58;95.75;102712.91;5104674;28;20036;-75
2022/02/11 06:35:31;;;;;;;16.80;2.22;;;;;;;4.48;97.09;102711.34;5102296;28;20032;-75
2022/02/11 06:37:57;;;;;;;13.68;2.10;;;;;;;4.31;97.27;102716.22;5082919;28;20012;-74
2022/02/11 06:40:23;;;;;;;13.30;1.77;;;;;;;4.15;97.15;102726.31;5095642;28;20568;-76
2022/02/11 06:42:48;;;;;;;14.88;2.47;;;;;;;4.08;97.01;102731.91;5081291;28;20019;-76
2022/02/11 06:45:13;;;;;;;18.52;2.88;;;;;;;3.97;98.04;102739.81;5101136;28;20186;-75
2022/02/11 06:47:39;;;;;;;18.30;4.57;;;;;;;3.92;97.97;102748.09;5075855;28;20582;-76
2022/02/11 06:50:04;;;;;;;21.02;4.40;;;;;;;3.92;98.57;102759.44;5100856;28;20035;-75
2022/02/11 06:52:30;;;;;;;16.73;2.30;;;;;;;3.96;98.83;102763.16;5097125;28;20024;-76
2022/02/11 06:54:55;;;;;;;28.48;3.67;;;;;;;4.00;99.54;102773.91;5094840;28;20118;-74
2022/02/11 06:57:20;;;;;;;29.88;5.32;;;;;;;4.11;99.19;102779.94;5104548;28;20039;-74
2022/02/11 06:59:46;;;;;;;18.13;3.70;;;;;;;4.27;97.18;102792.38;5089943;28;20036;-75
2022/02/11 07:02:19;;;;;;;26.45;3.05;;;;;;;4.34;97.05;102802.47;5084584;28;20027;-76
2022/02/11 07:04:45;;;;;;;15.63;3.42;;;;;;;4.38;98.32;102804.50;5081980;28;20034;-75
2022/02/11 07:07:11;;;;;;;20.45;2.97;;;;;;;4.42;100.00;102812.53;5077231;28;20038;-75
2022/02/11 07:09:37;;;;;;;21.30;2.47;;;;;;;4.44;100.00;102824.00;5079895;28;20039;-75
2022/02/11 07:12:02;;;;;;;22.05;3.63;;;;;;;4.38;100.00;102825.38;5101392;28;20425;-75
2022/02/11 07:14:28;;;;;;;16.35;3.08;;;;;;;4.33;100.00;102831.94;5099705;28;20038;-75
2022/02/11 07:16:54;;;;;;;18.83;3.20;;;;;;;4.28;100.00;102835.88;5087908;28;20012;-75
2022/02/11 07:19:20;;;;;;;20.27;2.70;;;;;;;4.28;100.00;102835.88;5092308;28;20024;-74
2022/02/11 07:21:46;;;;;;;23.58;2.95;;;;;;;4.29;100.00;102850.75;5108545;27;20036;-75
2022/02/11 07:24:11;;;;;;;17.77;3.60;;;;;;;4.29;100.00;102845.53;5105945;27;20428;-74
2022/02/11 07:26:37;;;;;;;12.07;2.33;;;;;;;4.36;100.00;102842.56;5094224;28;20043;-74
2022/02/11 07:29:02;;;;;;;19.60;3.42;;;;;;;4.36;100.00;102847.78;5105160;28;20039;-76
2022/02/11 07:31:27;;;;;;;20.80;2.75;;;;;;;4.32;100.00;102856.16;5100381;27;20435;-75
2022/02/11 07:33:53;;;;;;;21.63;3.30;;;;;;;4.32;100.00;102861.38;5093976;28;20106;-75
2022/02/11 07:36:18;;;;;;;23.40;2.60;;;;;;;4.32;100.00;102871.81;5112469;27;20087;-75
2022/02/11 07:38:44;;;;;;;23.98;3.50;;;;;;;4.35;100.00;102882.50;5090668;28;20032;-75
2022/02/11 07:41:09;;;;;;;20.52;4.30;;;;;;;4.43;100.00;102883.03;5088279;28;20051;-74
2022/02/11 07:43:34;;;;;;;27.90;4.35;;;;;;;4.56;100.00;102884.88;5095530;28;20027;-76
2022/02/11 07:46:01;;;;;;;17.63;3.35;;;;;;;4.72;99.99;102889.50;5089972;28;20213;-75
2022/02/11 07:48:27;;;;;;;17.83;2.78;;;;;;;4.77;98.33;102876.81;5086088;28;20039;-74
2022/02/11 07:50:53;;;;;;;22.70;3.60;;;;;;;4.82;97.37;102885.88;5080378;28;20020;-75
2022/02/11 07:53:19;;;;;;;25.10;3.63;;;;;;;4.87;97.50;102889.69;5090662;28;20052;-75
2022/02/11 07:55:45;;;;;;;22.08;2.78;;;;;;;4.98;94.60;102899.25;5108538;27;20382;-74
2022/02/11 07:58:12;;;;;;;23.35;2.97;;;;;;;5.12;93.09;102909.78;5093880;27;20019;-76
2022/02/11 08:00:38;;;;;;;17.10;2.47;;;;;;;5.05;92.22;102917.16;5083942;28;20476;-74
2022/02/11 08:03:03;;;;;;;17.02;2.75;;;;;;;4.93;92.60;102921.47;5081521;28;20027;-75
2022/02/11 08:05:28;;;;;;;21.67;3.50;;;;;;;4.80;94.29;102923.97;5101705;28;20024;-75
2022/02/11 08:07:54;;;;;;;30.73;3.13;;;;;;;4.72;94.94;102936.44;5107120;27;20032;-75
2022/02/11 08:10:19;;;;;;;18.75;3.45;;;;;;;4.73;95.92;102952.22;5107578;27;20114;-75
2022/02/11 08:12:45;;;;;;;22.55;3.35;;;;;;;4.70;95.40;102957.19;5111337;27;20024;-75
2022/02/11 08:15:11;;;;;;;21.63;3.83;;;;;;;4.71;94.85;102973.75;5108000;28;20128;-75
2022/02/11 08:17:37;;;;;;;21.00;2.63;;;;;;;4.71;88.26;102960.72;5113779;27;20048;-75
2022/02/11 08:20:03;;;;;;;18.83;1.85;;;;;;;4.78;83.69;102956.88;5094818;27;20447;-75
2022/02/11 08:22:29;;;;;;;22.55;2.28;;;;;;;4.85;81.99;102961.75;5098829;27;20055;-75
2022/02/11 08:24:54;;;;;;;18.20;2.75;;;;;;;4.83;80.67;102968.53;5116176;27;20032;-74
2022/02/11 08:27:19;;;;;;;19.75;2.22;;;;;;;4.90;80.92;102979.53;5116618;27;20031;-75
2022/02/11 08:29:46;;;;;;;18.25;2.20;;;;;;;4.95;79.72;102979.91;5089431;28;20092;-74
2022/02/11 08:32:11;;;;;;;21.92;3.55;;;;;;;5.01;79.09;102984.66;5100426;27;20015;-74
2022/02/11 08:34:37;;;;;;;17.02;2.22;;;;;;;5.06;80.03;102992.03;5082045;28;20114;-74
2022/02/11 08:37:03;;;;;;;15.63;2.35;;;;;;;5.03;77.94;102986.59;5105619;28;20016;-72
2022/02/11 08:39:29;;;;;;;13.50;2.17;;;;;;;5.09;77.39;103000.84;5089075;28;20032;-73
2022/02/11 08:41:54;;;;;;;22.52;2.58;;;;;;;5.13;77.92;103000.28;5103190;27;20087;-72
2022/02/11 08:44:20;;;;;;;17.17;2.58;;;;;;;5.17;78.56;103005.88;5099210;27;20036;-72
2022/02/11 08:46:45;;;;;;;12.55;2.13;;;;;;;5.24;78.24;103010.72;5097636;28;20081;-72
2022/02/11 08:49:11;;;;;;;13.18;1.90;;;;;;;5.31;78.70;103008.59;5099918;28;20042;-73
2022/02/11 08:51:37;;;;;;;15.23;1.70;;;;;;;5.36;78.00;103013.34;5092548;28;20387;-73
2022/02/11 08:54:04;;;;;;;15.77;1.70;;;;;;;5.45;78.56;103023.53;5082567;27;20048;-74
2022/02/11 08:56:29;;;;;;;16.15;2.72;;;;;;;5.47;76.71;103028.91;5086472;27;20050;-73
2022/02/11 08:58:56;;;;;;;14.35;3.65;;;;;;;5.52;77.24;103031.03;5102373;27;20475;-73
2022/02/11 09:01:21;;;;;;;15.55;2.13;;;;;;;5.59;75.00;103040.22;5098367;27;20125;-73
2022/02/11 09:03:46;;;;;;;22.48;2.90;;;;;;;5.64;75.24;103041.44;5085725;28;20541;-73
2022/02/11 09:06:12;;;;;;;13.30;2.20;;;;;;;5.72;75.62;103042.94;5114396;27;20019;-73
2022/02/11 09:08:37;;;;;;;18.05;2.53;;;;;;;5.85;76.00;103051.66;5109378;27;20114;-73
2022/02/11 09:11:04;;;;;;;16.25;2.05;;;;;;;5.98;76.04;103056.06;5106796;27;20027;-72
2022/02/11 09:13:30;;;;;;;26.10;3.17;;;;;;;6.05;74.45;103069.69;5102210;27;20036;-73
2022/02/11 09:15:56;;;;;;;12.70;2.05;;;;;;;6.18;74.64;103067.94;5100597;27;20023;-73
2022/02/11 09:18:22;;;;;;;10.52;2.00;;;;;;;6.28;73.60;103065.16;5095207;28;20023;-72
2022/02/11 09:20:48;;;;;;;17.75;2.60;;;;;;;6.53;71.42;103077.34;5098556;28;20516;-71
2022/02/11 09:23:15;;;;;;;20.15;2.83;;;;;;;7.04;71.87;103083.38;5104475;27;20030;-72
2022/02/11 09:25:40;;;;;;;20.38;2.45;;;;;;;7.53;70.41;103072.66;5084033;28;20038;-70
2022/02/11 09:28:05;;;;;;;20.05;2.35;;;;;;;7.89;66.39;103075.81;5102059;28;20028;-71
2022/02/11 09:30:34;;;;;;;15.52;2.83;;;;;;;8.27;63.90;103080.84;5077314;28;20429;-72
2022/02/11 09:33:00;;;;;;;16.52;2.40;;;;;;;8.23;64.08;103088.41;5108387;27;20033;-71
2022/02/11 09:35:28;;;;;;;18.08;3.42;;;;;;;8.26;67.00;103093.84;5093194;28;20020;-71
2022/02/11 09:37:54;;;;;;;14.13;2.63;;;;;;;8.35;63.40;103102.28;5105073;27;20024;-72
2022/02/11 09:40:19;;;;;;;15.25;2.40;;;;;;;8.42;63.91;103112.38;5080698;28;20031;-71
2022/02/11 09:42:45;;;;;;;10.88;1.88;;;;;;;8.22;64.25;103123.31;5111944;27;20094;-71
2022/02/11 09:45:14;;;;;;;17.88;2.33;;;;;;;7.75;63.74;103122.09;5091724;28;20073;-71
2022/02/11 09:47:40;;;;;;;14.70;3.03;;;;;;;7.69;62.22;103120.00;5088709;28;20391;-71
2022/02/11 09:50:08;;;;;;;9.10;1.83;;;;;;;7.79;61.02;103117.97;5090769;28;20114;-71
2022/02/11 09:52:38;;;;;;;14.43;2.17;;;;;;;8.07;61.69;103129.41;5092386;28;20584;-71
2022/02/11 09:57:48;;;;;;;18.23;2.40;;;;;;;8.57;60.13;103132.53;5097266;27;20078;-72
2022/02/11 10:00:14;;;;;;;11.18;2.00;;;;;;;8.87;59.69;103127.31;5082206;28;20051;-72
2022/02/11 10:03:00;;;;;;;11.63;2.45;;;;;;;9.05;58.06;103133.69;5103560;27;20054;-72
2022/02/11 10:05:30;;;;;;;10.40;1.65;;;;;;;9.04;56.62;103137.13;5090140;28;20480;-72
2022/02/11 10:07:56;;;;;;;14.43;2.05;;;;;;;9.05;55.87;103138.06;5111735;27;20085;-72
2022/02/11 10:13:10;;;;;;;9.93;1.63;;;;;;;9.28;54.25;103147.31;5097443;27;20049;-72
2022/02/11 10:15:38;;;;;;;10.20;1.42;;;;;;;9.44;54.56;103150.00;5113878;27;20040;-72
2022/02/11 10:18:05;;;;;;;14.60;1.80;;;;;;;9.52;54.84;103149.53;5117093;27;20114;-72
2022/02/11 10:20:38;;;;;;;8.52;2.00;;;;;;;9.74;54.04;103149.03;5102342;27;20030;-72
2022/02/11 10:23:24;;;;;;;12.30;2.40;;;;;;;9.70;53.16;103161.13;5104107;28;20031;-72
2022/02/11 10:25:51;;;;;;;8.45;1.55;;;;;;;9.95;55.37;103176.56;5108728;27;20035;-72
2022/02/11 10:28:36;;;;;;;9.48;2.72;;;;;;;10.10;54.98;103184.41;5101490;27;20023;-73
2022/02/11 10:31:30;;;;;;;17.42;2.30;;;;;;;9.89;55.18;103185.81;5113877;27;20034;-71
2022/02/11 10:34:03;;;;;;;12.18;2.30;;;;;;;9.74;56.53;103191.09;5113730;27;20172;-72
2022/02/11 10:36:36;;;;;;;13.50;3.67;;;;;;;9.79;56.42;103195.84;5078106;28;20019;-72
2022/02/11 10:39:11;;;;;;;12.35;2.70;;;;;;;10.21;58.02;103205.16;5117110;27;20582;-72
2022/02/11 10:41:42;;;;;;;11.38;1.92;;;;;;;10.38;56.59;103203.53;5102007;27;20050;-72
2022/02/11 10:44:11;;;;;;;15.70;2.47;;;;;;;10.22;55.68;103209.63;5106001;27;20027;-72
2022/02/11 10:46:45;;;;;;;11.82;2.70;;;;;;;9.71;56.66;103202.38;5101311;28;20070;-71
2022/02/11 10:49:12;;;;;;;16.38;2.42;;;;;;;9.17;57.84;103214.97;5110745;28;20028;-72
2022/02/11 10:51:46;;;;;;;15.30;2.38;;;;;;;9.02;57.75;103217.56;5111775;28;20573;-72
2022/02/11 10:54:23;;;;;;;16.40;2.30;;;;;;;8.91;57.51;103219.53;5087633;27;20040;-72
2022/02/11 10:56:54;;;;;;;10.35;1.90;;;;;;;9.13;56.50;103220.84;5068351;28;20039;-72
2022/02/11 10:59:30;;;;;;;8.50;1.55;;;;;;;9.10;55.34;103231.13;5093731;28;20048;-72
2022/02/11 11:01:58;;;;;;;12.60;1.80;;;;;;;9.74;51.74;103215.69;5097468;28;20028;-71
2022/02/11 11:04:25;;;;;;;11.88;1.75;;;;;;;10.03;53.78;103226.09;5090587;28;20027;-72
2022/02/11 11:06:51;;;;;;;9.13;1.80;;;;;;;9.74;53.30;103238.44;5098112;28;20035;-71
2022/02/11 11:09:17;;;;;;;13.77;2.38;;;;;;;9.44;53.25;103242.00;5080164;28;20030;-72
2022/02/11 11:11:44;;;;;;;12.45;1.63;;;;;;;9.57;52.24;103235.72;5090474;28;20498;-73
2022/02/11 11:14:16;;;;;;;12.32;2.45;;;;;;;9.55;52.01;103237.38;5104673;28;20115;-72
2022/02/11 11:16:43;;;;;;;11.60;2.50;;;;;;;9.25;52.00;103241.66;5103371;28;20042;-71
2022/02/11 11:19:09;;;;;;;11.00;2.03;;;;;;;9.10;53.59;103246.91;5083065;28;20025;-71
2022/02/11 11:21:43;;;;;;;7.53;2.15;;;;;;;9.32;54.11;103257.00;5077733;28;20029;-72
2022/02/11 11:24:09;;;;;;;12.10;1.60;;;;;;;9.99;52.77;103246.03;5074075;28;20015;-72
2022/02/11 11:26:45;;;;;;;10.85;1.92;;;;;;;10.71;51.42;103241.31;5087855;28;20090;-71
2022/02/11 11:29:12;;;;;;;13.43;1.38;;;;;;;11.54;49.09;103230.72;5071834;28;20031;-73
2022/02/11 11:31:50;;;;;;;6.38;1.60;;;;;;;12.39;48.80;103235.81;5092616;28;20071;-72
2022/02/11 11:34:15;;;;;;;9.68;1.70;;;;;;;13.21;41.12;103222.78;5080792;28;20030;-73
2022/02/11 11:36:42;;;;;;;9.60;2.00;;;;;;;13.62;40.52;103221.06;5064893;28;20040;-74
2022/02/11 11:39:07;;;;;;;9.90;1.60;;;;;;;14.20;38.86;103221.63;5094194;28;20023;-72
2022/02/11 11:41:35;;;;;;;7.50;2.17;;;;;;;14.43;38.96;103227.81;5087849;28;20502;-71
2022/02/11 11:44:18;;;;;;;6.97;1.20;;;;;;;14.82;36.47;103222.28;5082699;28;20020;-70
2022/02/11 11:46:47;;;;;;;16.00;2.00;;;;;;;14.93;35.80;103217.38;5081627;28;20029;-71
2022/02/11 11:49:15;;;;;;;12.25;2.55;;;;;;;14.93;36.52;103233.28;5086160;28;20360;-71
2022/02/11 11:51:40;;;;;;;10.50;1.73;;;;;;;14.98;36.57;103234.34;5060137;28;20523;-73
2022/02/11 11:57:01;;;;;;;11.57;1.70;;;;;;;14.79;36.11;103228.38;5077235;28;20127;-72
2022/02/11 11:59:38;;;;;;;8.70;1.60;;;;;;;14.64;39.15;103241.03;5095866;28;20102;-73
2022/02/11 12:02:07;;;;;;;12.60;2.05;;;;;;;14.37;36.94;103233.78;5094068;28;20468;-73
2022/02/11 12:04:41;;;;;;;7.15;2.25;;;;;;;14.14;38.22;103235.53;5063141;28;20047;-73
2022/02/11 12:07:08;;;;;;;9.05;2.05;;;;;;;14.35;36.85;103224.88;5080463;28;20028;-74
2022/02/11 12:09:34;;;;;;;12.07;2.22;;;;;;;14.34;37.98;103239.88;5073754;28;20098;-74
2022/02/11 12:12:09;;;;;;;8.50;1.42;;;;;;;14.47;36.76;103233.31;5098953;28;20020;-72
2022/02/11 12:14:36;;;;;;;8.88;1.98;;;;;;;14.92;34.57;103229.75;5071726;28;20035;-72
2022/02/11 12:17:04;;;;;;;12.18;1.55;;;;;;;15.02;34.75;103230.97;5104374;28;20098;-72
2022/02/11 12:19:32;;;;;;;13.15;1.63;;;;;;;14.43;35.94;103233.13;5087310;28;20028;-71
2022/02/11 12:21:58;;;;;;;14.38;2.47;;;;;;;13.56;37.88;103240.19;5087227;28;20020;-72
2022/02/11 12:27:21;;;;;;;10.93;1.80;;;;;;;12.19;44.74;103263.00;5077293;28;20400;-73
2022/02/11 12:29:48;;;;;;;8.85;1.63;;;;;;;11.70;44.33;103258.78;5098423;28;20037;-75
2022/02/11 12:32:15;;;;;;;16.90;1.90;;;;;;;11.23;44.52;103255.47;5067785;28;20019;-74
2022/02/11 12:34:46;;;;;;;15.55;1.90;;;;;;;10.88;46.33;103265.94;5080379;28;20024;-74
2022/02/11 12:37:12;;;;;;;8.95;1.90;;;;;;;10.57;48.32;103280.06;5080366;28;20439;-71
2022/02/11 12:39:37;;;;;;;9.23;1.50;;;;;;;10.41;48.86;103280.91;5099350;28;20028;-71
2022/02/11 12:42:03;;;;;;;14.82;2.03;;;;;;;10.05;52.55;103293.75;5094856;28;20492;-71
2022/02/11 12:44:30;;;;;;;8.30;1.73;;;;;;;9.61;49.91;103284.13;5076244;28;20040;-72
2022/02/11 12:46:59;;;;;;;15.80;2.10;;;;;;;9.30;52.89;103292.78;5093726;28;20028;-71
2022/02/11 12:49:25;;;;;;;13.00;2.00;;;;;;;9.17;57.42;103300.72;5089511;28;20032;-71
2022/02/11 12:51:52;;;;;;;10.48;2.10;;;;;;;8.89;60.61;103307.78;5094746;28;20378;-71
2022/02/11 12:54:19;;;;;;;12.85;1.80;;;;;;;8.67;64.22;103316.03;5094989;27;20127;-71
2022/02/11 12:56:45;;;;;;;9.68;1.92;;;;;;;8.10;66.68;103322.78;5112293;27;20035;-71
2022/02/11 12:59:11;;;;;;;14.60;2.13;;;;;;;7.36;69.60;103331.72;5104410;27;20070;-72
2022/02/11 13:01:36;;;;;;;10.10;1.65;;;;;;;7.15;70.25;103332.84;5114555;27;20064;-71
2022/02/11 13:04:02;;;;;;;13.90;2.20;;;;;;;7.19;70.73;103337.50;5105471;27;20368;-71
2022/02/11 13:06:31;;;;;;;9.20;1.38;;;;;;;7.23;70.38;103335.22;5112017;27;20058;-71
2022/02/11 13:09:01;;;;;;;18.80;1.92;;;;;;;7.23;69.35;103337.84;5099936;28;20031;-71
2022/02/11 13:11:27;;;;;;;12.85;1.80;;;;;;;7.32;69.98;103337.56;5110499;27;20092;-71
2022/02/11 13:14:18;;;;;;;11.65;1.95;;;;;;;7.23;69.17;103335.22;5099665;27;20036;-71
2022/02/11 13:16:45;;;;;;;14.23;1.30;;;;;;;7.32;68.87;103339.28;5119549;27;20042;-72
2022/02/11 13:19:10;;;;;;;10.45;1.52;;;;;;;7.37;68.95;103332.66;5107510;27;20024;-72
2022/02/11 13:21:36;;;;;;;11.55;1.10;;;;;;;7.49;67.96;103337.81;5098702;27;20024;-72
2022/02/11 13:24:03;;;;;;;12.98;1.67;;;;;;;8.24;67.82;103347.28;5098917;27;20107;-72
2022/02/11 13:26:29;;;;;;;12.75;1.77;;;;;;;9.74;62.68;103335.72;5115061;27;20019;-72
2022/02/11 13:28:56;;;;;;;8.48;1.63;;;;;;;11.17;57.43;103321.94;5105761;28;20690;-72
2022/02/11 13:31:22;;;;;;;9.77;1.77;;;;;;;12.24;52.52;103309.00;5089596;28;20076;-72
2022/02/11 13:34:04;;;;;;;8.18;1.38;;;;;;;13.09;49.49;103305.06;5120893;27;20028;-71
2022/02/11 13:36:30;;;;;;;9.82;1.80;;;;;;;13.22;47.08;103298.63;5110225;27;20019;-72
2022/02/11 13:39:01;;;;;;;9.30;1.58;;;;;;;13.38;46.42;103303.78;5086621;28;20413;-73
2022/02/11 13:41:32;;;;;;;19.75;2.45;;;;;;;13.66;45.58;103281.19;5102443;27;20030;-72
2022/02/11 13:44:06;;;;;;;10.40;1.52;;;;;;;13.57;45.23;103304.59;5087822;27;20115;-72
2022/02/11 13:46:32;;;;;;;;;;;;;;;13.54;44.65;103304.44;5087008;27;20031;-72
2022/02/11 13:49:03;;;;;;;8.10;1.38;;;;;;;13.07;45.87;103309.41;5083935;28;19907;-72
2022/02/11 13:51:29;;;;;;;8.32;1.23;;;;;;;13.55;45.71;103311.56;5096086;28;20401;-73
2022/02/11 13:53:55;;;;;;;5.60;1.50;;;;;;;13.71;44.77;103303.44;5107411;27;20036;-72
2022/02/11 13:56:38;;;;;;;9.65;1.50;;;;;;;13.23;43.78;103300.44;5084518;27;20092;-72
2022/02/11 13:59:13;;;;;;;9.80;1.23;;;;;;;12.28;45.69;103308.31;5102061;27;20084;-72
2022/02/11 14:01:46;;;;;;;7.47;1.30;;;;;;;10.88;47.90;103304.53;5103668;28;20077;-72
2022/02/11 14:04:17;;;;;;;9.70;1.30;;;;;;;10.56;49.19;103314.19;5107977;27;20027;-72
2022/02/11 14:06:56;;;;;;;13.32;2.10;;;;;;;10.45;50.01;103317.13;5100783;27;20019;-76
2022/02/11 14:09:40;;;;;;;11.32;1.83;;;;;;;9.89;53.58;103333.09;5125368;27;20034;-75
2022/02/11 14:12:06;;;;;;;;;;;;;;;9.86;56.62;103343.44;5110025;27;20027;-76
2022/02/11 14:14:33;;;;;;;3.35;1.15;;;;;;;9.53;57.86;103344.13;5080825;28;20295;-76
2022/02/11 14:16:59;;;;;;;10.07;1.48;;;;;;;9.02;60.99;103353.19;5105623;28;20072;-76
2022/02/11 14:19:26;;;;;;;7.35;1.85;;;;;;;8.86;62.71;103361.84;5096555;28;20495;-76
2022/02/11 14:21:56;;;;;;;6.82;1.45;;;;;;;8.83;63.37;103364.25;5113658;27;20031;-76
2022/02/11 14:24:22;;;;;;;9.73;1.67;;;;;;;8.72;64.29;103368.81;5087059;28;20031;-77
2022/02/11 14:26:48;;;;;;;15.40;1.80;;;;;;;8.62;65.64;103371.66;5070502;28;20130;-76
2022/02/11 14:29:15;;;;;;;12.73;1.92;;;;;;;8.56;64.32;103366.88;5112661;28;20031;-76
2022/02/11 14:31:41;;;;;;;10.68;1.95;;;;;;;8.52;62.24;103375.38;5099640;27;20024;-77
2022/02/11 14:34:07;;;;;;;6.53;1.40;;;;;;;8.22;61.14;103372.50;5085410;28;20100;-76
2022/02/11 14:36:33;;;;;;;17.70;2.05;;;;;;;8.20;61.50;103374.13;5117790;27;20061;-76
2022/02/11 14:38:58;;;;;;;9.48;1.30;;;;;;;8.04;61.61;103370.44;5104798;27;20816;-76
2022/02/11 14:44:08;;;;;;;11.35;1.38;;;;;;;7.96;62.90;103369.00;5110848;27;20100;-76
2022/02/11 14:46:35;;;;;;;8.10;1.70;;;;;;;8.01;63.16;103369.34;5088272;28;20479;-76
2022/02/11 14:49:00;;;;;;;8.40;2.33;;;;;;;8.07;64.06;103375.91;5112868;28;20020;-76
2022/02/11 14:51:25;;;;;;;10.35;1.55;;;;;;;8.17;62.91;103381.78;5100985;28;20107;-76
2022/02/11 14:53:51;;;;;;;7.72;1.17;;;;;;;8.15;60.61;103375.50;5098205;28;20488;-77
2022/02/11 14:56:18;;;;;;;7.57;1.45;;;;;;;8.07;60.95;103380.22;5108591;28;20139;-76
2022/02/11 14:58:43;;;;;;;10.57;1.27;;;;;;;8.09;61.12;103384.78;5104896;28;20416;-77
2022/02/11 15:01:09;;;;;;;8.30;1.40;;;;;;;8.13;61.76;103383.28;5100432;28;20036;-78
2022/02/11 15:03:35;;;;;;;9.27;1.80;;;;;;;8.13;61.57;103385.00;5077967;28;20445;-76
2022/02/11 15:06:01;;;;;;;6.50;1.45;;;;;;;8.03;59.16;103373.91;5103392;28;20020;-77
2022/02/11 15:08:26;;;;;;;12.82;1.38;;;;;;;8.06;63.00;103376.72;5086641;28;20040;-76
2022/02/11 15:10:51;;;;;;;11.32;2.33;;;;;;;8.07;62.59;103382.84;5084817;28;20107;-76
2022/02/11 15:13:17;;;;;;;6.72;1.23;;;;;;;8.14;61.10;103386.81;5102846;28;20031;-74
2022/02/11 15:15:43;;;;;;;8.70;1.05;;;;;;;8.24;59.93;103382.28;5079352;28;20027;-75